Pagina principale
METAR-TAF:

METAR-TAF

Aeroporti :

Parsabad, Iran

latitudine: 39-36-13N, longitudine: 47-52-53E, altezza: 77 m

Osservazione

Il bollettino è stato emesso 10 minuti fa, alle 19:00 UTC
Vento 6 kt da sud/sud-est
Temperature 24°C
Umidità 41%
Pressione 1008 hPa
Visibilità 10 km o più
nessuna nube inferiore a 1500 m e nessun cumulonembo

METAR: OITP 191900Z 16006KT CAVOK 24/10 Q1008

Ora: 23:40 (19:10 UTC)


TAF: mancante

Osservazioni e previsioni meteorologiche di più di 4000 aeroporti (messaggi METAR e TAF).

Le stazioni disponibili sono rappresentate dai dischi gialli e rossi sulla carta.

Puntare il mouse per vedere il nome della stazione.

Clicca sopra per visualizzare le osservazioni e previsioni meteorologiche.

Per cambiare la mappa : fare clic sui pulsanti verdi con una croce nera per ingrandire, il pulsante verde con un trattino per diminuire, o sulla freccia verde per le mappe adiacenti.


METAR-TAF: